Time;durP1;ratioP1;P1;durP2;ratioP2;P2;SDS_P1;SDS_P2;PMS_P1;PMS_P2;Temp;Humidity;BMP_temperature;BMP_pressure;BME280_temperature;BME280_humidity;BME280_pressure;Samples;Min_cycle;Max_cycle;Signal;HPM_P1;HPM_P2
2022/03/23 00:00:25;;;;;;;32.93;14.23;;;6.50;99.90;;;;;;5030544;28;21174;-74
2022/03/23 00:02:51;;;;;;;21.73;13.73;;;6.50;99.90;;;;;;5030381;28;20841;-74
2022/03/23 00:05:18;;;;;;;20.80;13.73;;;6.50;99.90;;;;;;5030581;28;20503;-74
2022/03/23 00:07:45;;;;;;;28.30;14.73;;;6.40;99.90;;;;;;5030414;28;20469;-74
2022/03/23 00:10:11;;;;;;;26.50;14.80;;;6.40;99.90;;;;;;5030208;28;20952;-73
2022/03/23 00:12:38;;;;;;;25.00;15.00;;;6.40;99.90;;;;;;5030995;28;20453;-73
2022/03/23 00:15:07;;;;;;;29.90;14.87;;;6.40;99.90;;;;;;5029925;28;20457;-74
2022/03/23 00:17:34;;;;;;;43.20;15.60;;;6.40;99.90;;;;;;5030046;28;20480;-74
2022/03/23 00:20:00;;;;;;;24.47;14.53;;;6.30;99.90;;;;;;5029815;28;20541;-74
2022/03/23 00:22:27;;;;;;;27.60;14.80;;;6.30;99.90;;;;;;5030299;28;20883;-74
2022/03/23 00:24:56;;;;;;;23.57;13.57;;;6.30;99.90;;;;;;5029810;28;20458;-73
2022/03/23 00:27:22;;;;;;;23.27;14.03;;;6.30;99.90;;;;;;5030081;28;20501;-74
2022/03/23 00:29:49;;;;;;;28.83;14.27;;;6.30;99.90;;;;;;5029633;28;20457;-74
2022/03/23 00:32:17;;;;;;;31.00;15.07;;;6.30;99.90;;;;;;5030134;28;20903;-74
2022/03/23 00:34:44;;;;;;;29.00;16.33;;;6.20;99.90;;;;;;5029964;28;20524;-75
2022/03/23 00:37:11;;;;;;;28.77;15.90;;;6.20;99.90;;;;;;5030008;28;20473;-74
2022/03/23 00:39:38;;;;;;;32.33;14.33;;;6.20;99.90;;;;;;5029995;28;20824;-73
2022/03/23 00:42:04;;;;;;;24.03;13.73;;;6.20;99.90;;;;;;5029778;28;21197;-74
2022/03/23 00:44:31;;;;;;;31.43;14.13;;;6.20;99.90;;;;;;5030182;28;20453;-74
2022/03/23 00:46:58;;;;;;;22.77;12.50;;;6.10;99.90;;;;;;5029785;28;20469;-74
2022/03/23 00:49:26;;;;;;;23.43;13.50;;;6.00;99.90;;;;;;5028894;28;20942;-72
2022/03/23 00:51:53;;;;;;;24.80;14.20;;;6.00;99.90;;;;;;5029702;28;20949;-72
2022/03/23 00:54:20;;;;;;;23.10;13.17;;;5.90;99.90;;;;;;5021583;28;20457;-72
2022/03/23 00:56:48;;;;;;;22.27;13.83;;;5.80;99.90;;;;;;5022583;28;20458;-72
2022/03/23 00:59:14;;;;;;;27.90;13.10;;;5.80;99.90;;;;;;5030125;28;20872;-72
2022/03/23 01:01:41;;;;;;;23.90;13.00;;;5.70;99.90;;;;;;5029624;28;20477;-72
2022/03/23 01:04:08;;;;;;;19.87;13.10;;;5.70;99.90;;;;;;5029539;28;20454;-72
2022/03/23 01:06:35;;;;;;;24.93;14.63;;;5.70;99.90;;;;;;5029561;28;20453;-72
2022/03/23 01:09:02;;;;;;;23.13;12.83;;;5.70;99.90;;;;;;5030232;28;20455;-72
2022/03/23 01:11:29;;;;;;;23.20;13.27;;;5.70;99.90;;;;;;5029697;28;20446;-72
2022/03/23 01:13:55;;;;;;;33.23;15.03;;;5.70;99.90;;;;;;5030094;28;20445;-72
2022/03/23 01:16:22;;;;;;;26.50;14.47;;;5.70;99.90;;;;;;5029426;28;20453;-72
2022/03/23 01:18:49;;;;;;;29.20;14.47;;;5.60;99.90;;;;;;5029973;28;20477;-72
2022/03/23 01:21:16;;;;;;;22.60;14.20;;;5.60;99.90;;;;;;5028912;28;20485;-72
2022/03/23 01:23:45;;;;;;;20.10;13.30;;;5.60;99.90;;;;;;5031277;28;20861;-72
2022/03/23 01:26:12;;;;;;;28.23;13.77;;;5.60;99.90;;;;;;5033059;28;20460;-72
2022/03/23 01:28:38;;;;;;;24.60;14.10;;;5.50;99.90;;;;;;5033223;28;20473;-72
2022/03/23 01:31:06;;;;;;;24.20;14.70;;;5.50;99.90;;;;;;5033014;28;20849;-72
2022/03/23 01:33:32;;;;;;;31.03;14.20;;;5.50;99.90;;;;;;5032977;28;20458;-73
2022/03/23 01:35:59;;;;;;;28.27;14.10;;;5.50;99.90;;;;;;5033174;28;20822;-72
2022/03/23 01:38:26;;;;;;;27.83;13.97;;;5.40;99.90;;;;;;5032657;28;20473;-72
2022/03/23 01:40:54;;;;;;;23.37;14.50;;;5.40;99.90;;;;;;5033046;28;20527;-72
2022/03/23 01:43:20;;;;;;;24.20;14.30;;;5.40;99.90;;;;;;5032882;28;20449;-72
2022/03/23 01:45:47;;;;;;;26.90;14.83;;;5.30;99.90;;;;;;5032826;28;20503;-72
2022/03/23 01:48:14;;;;;;;30.37;14.50;;;5.30;99.90;;;;;;5022192;28;20536;-72
2022/03/23 01:50:41;;;;;;;32.80;15.40;;;5.30;99.90;;;;;;5032887;28;20461;-72
2022/03/23 01:53:07;;;;;;;24.57;14.27;;;5.20;99.90;;;;;;5032709;28;20468;-72
2022/03/23 01:55:34;;;;;;;33.80;15.27;;;5.20;99.90;;;;;;5026636;28;20945;-72
2022/03/23 01:58:02;;;;;;;26.33;14.43;;;5.20;99.90;;;;;;5033035;28;20477;-72
2022/03/23 02:00:29;;;;;;;25.43;15.03;;;5.10;99.90;;;;;;5032489;28;20449;-72
2022/03/23 02:02:57;;;;;;;23.13;13.77;;;5.10;99.90;;;;;;5032841;28;21007;-72
2022/03/23 02:05:24;;;;;;;24.43;14.03;;;5.10;99.90;;;;;;5032366;28;20453;-72
2022/03/23 02:07:51;;;;;;;23.20;14.10;;;5.10;99.90;;;;;;5032632;28;20474;-72
2022/03/23 02:10:18;;;;;;;29.53;14.70;;;5.10;99.90;;;;;;5032003;28;20515;-72
2022/03/23 02:12:45;;;;;;;26.17;14.53;;;5.10;99.90;;;;;;5032555;28;20965;-72
2022/03/23 02:15:16;;;;;;;27.40;14.10;;;5.00;99.90;;;;;;5031956;28;20507;-72
2022/03/23 02:17:43;;;;;;;27.60;13.43;;;5.00;99.90;;;;;;5032476;28;20473;-72
2022/03/23 02:20:12;;;;;;;26.50;14.17;;;4.90;99.90;;;;;;5031937;28;20461;-72
2022/03/23 02:22:40;;;;;;;28.10;14.30;;;4.90;99.90;;;;;;5032085;28;20481;-72
2022/03/23 02:25:08;;;;;;;24.90;15.47;;;4.80;99.90;;;;;;5032052;28;20535;-72
2022/03/23 02:27:37;;;;;;;24.17;14.10;;;4.80;99.90;;;;;;5030555;28;20489;-72
2022/03/23 02:30:05;;;;;;;28.53;15.07;;;4.80;99.90;;;;;;5020982;28;21017;-72
2022/03/23 02:32:32;;;;;;;24.50;13.60;;;4.70;99.90;;;;;;5032109;28;20479;-72
2022/03/23 02:34:59;;;;;;;31.63;13.77;;;4.70;99.90;;;;;;5030750;28;20457;-72
2022/03/23 02:37:26;;;;;;;36.00;14.20;;;4.70;99.90;;;;;;5031714;28;20465;-72
2022/03/23 02:39:54;;;;;;;25.03;15.23;;;4.70;99.90;;;;;;5032024;28;20469;-72
2022/03/23 02:42:21;;;;;;;28.07;15.43;;;4.70;99.90;;;;;;5031548;28;20579;-72
2022/03/23 02:44:48;;;;;;;24.50;13.57;;;4.60;99.90;;;;;;5031808;28;20454;-72
2022/03/23 02:47:15;;;;;;;25.10;14.53;;;4.60;99.90;;;;;;5031195;28;20469;-72
2022/03/23 02:49:42;;;;;;;24.33;13.97;;;4.50;99.90;;;;;;5031670;28;21023;-72
2022/03/23 02:52:08;;;;;;;32.93;14.37;;;4.50;99.90;;;;;;5031983;28;20449;-72
2022/03/23 03:03:20;;;;;;;27.43;16.10;;;4.20;99.90;;;;;;5031295;28;20474;-72
2022/03/23 03:05:47;;;;;;;27.53;15.83;;;4.20;99.90;;;;;;5031649;28;20471;-72
2022/03/23 03:10:57;;;;;;;22.67;13.93;;;4.10;99.90;;;;;;5031943;28;20464;-72
2022/03/23 03:13:26;;;;;;;27.97;15.53;;;4.10;99.90;;;;;;5031545;28;20869;-72
2022/03/23 03:15:53;;;;;;;25.97;14.10;;;4.00;99.90;;;;;;5031644;28;20457;-72
2022/03/23 03:18:20;;;;;;;24.70;15.20;;;4.00;99.90;;;;;;5031547;28;20472;-72
2022/03/23 03:20:46;;;;;;;31.50;15.80;;;4.00;99.90;;;;;;5021298;28;20477;-72
2022/03/23 03:23:13;;;;;;;24.13;14.40;;;4.00;99.90;;;;;;5028740;28;20454;-72
2022/03/23 03:25:39;;;;;;;29.90;16.03;;;4.00;99.90;;;;;;5030890;28;20504;-72
2022/03/23 03:28:06;;;;;;;25.17;14.37;;;3.90;99.90;;;;;;5031055;28;20477;-72
2022/03/23 03:30:35;;;;;;;29.93;14.73;;;3.90;99.90;;;;;;5030580;28;20926;-72
2022/03/23 03:33:01;;;;;;;30.07;16.53;;;3.90;99.90;;;;;;5031095;28;20449;-72
2022/03/23 03:35:28;;;;;;;31.40;16.00;;;3.90;99.90;;;;;;5030848;28;20465;-72
2022/03/23 03:37:55;;;;;;;43.63;16.20;;;3.90;99.90;;;;;;5030462;28;20478;-72
2022/03/23 03:40:21;;;;;;;31.03;15.80;;;3.90;99.90;;;;;;5030328;28;20824;-72
2022/03/23 03:42:48;;;;;;;29.00;15.63;;;3.90;99.90;;;;;;5030722;28;20489;-72
2022/03/23 03:45:14;;;;;;;30.43;15.47;;;3.80;99.90;;;;;;5030374;28;20515;-72
2022/03/23 03:47:42;;;;;;;24.90;15.77;;;3.80;99.90;;;;;;5030015;28;20985;-72
2022/03/23 03:50:10;;;;;;;29.70;16.50;;;3.70;99.90;;;;;;5030780;28;20449;-72
2022/03/23 03:52:36;;;;;;;32.53;17.03;;;3.70;99.90;;;;;;5030895;28;20496;-72
2022/03/23 03:55:04;;;;;;;28.77;15.90;;;3.70;99.90;;;;;;5030287;28;20461;-72
2022/03/23 03:57:30;;;;;;;31.70;15.20;;;3.60;99.90;;;;;;5030745;28;20473;-72
2022/03/23 03:59:57;;;;;;;36.03;16.03;;;3.70;99.90;;;;;;5030325;28;20507;-72
2022/03/23 04:02:24;;;;;;;31.90;16.27;;;3.70;99.90;;;;;;5030097;28;20481;-72
2022/03/23 04:04:52;;;;;;;26.30;14.90;;;3.60;99.90;;;;;;5030536;28;20453;-72
2022/03/23 04:07:19;;;;;;;29.10;16.83;;;3.60;99.90;;;;;;5030033;28;20536;-72
2022/03/23 04:09:45;;;;;;;25.20;16.27;;;3.60;99.90;;;;;;5030274;28;20457;-72
2022/03/23 04:12:12;;;;;;;29.90;15.90;;;3.60;99.90;;;;;;5030158;28;20942;-72
2022/03/23 04:14:39;;;;;;;30.80;17.83;;;3.50;99.90;;;;;;5030084;28;20453;-72
2022/03/23 04:17:06;;;;;;;34.17;16.87;;;3.50;99.90;;;;;;5030556;28;20481;-72
2022/03/23 04:19:32;;;;;;;30.03;16.83;;;3.50;99.90;;;;;;5029900;28;20449;-72
2022/03/23 04:22:00;;;;;;;29.20;16.17;;;3.50;99.90;;;;;;5016777;28;20493;-72
2022/03/23 04:24:27;;;;;;;32.97;16.90;;;3.50;99.90;;;;;;5029874;28;20461;-72
2022/03/23 04:26:54;;;;;;;42.83;17.40;;;3.40;99.90;;;;;;5030146;28;20477;-72
2022/03/23 04:29:24;;;;;;;25.63;15.63;;;3.40;99.90;;;;;;5020457;28;20511;-72
2022/03/23 04:31:51;;;;;;;30.40;16.37;;;3.40;99.90;;;;;;5030745;28;20523;-72
2022/03/23 04:34:17;;;;;;;29.03;15.93;;;3.30;99.90;;;;;;5029868;28;20801;-72
2022/03/23 04:36:44;;;;;;;30.67;16.60;;;3.30;99.90;;;;;;5029995;28;20511;-72
2022/03/23 04:39:12;;;;;;;33.90;16.57;;;3.30;99.90;;;;;;5024838;28;20984;-72
2022/03/23 04:41:39;;;;;;;27.20;17.53;;;3.30;99.90;;;;;;5030373;28;20481;-72
2022/03/23 04:44:06;;;;;;;34.47;16.30;;;3.30;99.90;;;;;;5029886;28;21140;-72
2022/03/23 04:46:32;;;;;;;29.77;16.40;;;3.30;99.90;;;;;;5029925;28;20465;-72
2022/03/23 04:48:59;;;;;;;32.37;16.20;;;3.30;99.90;;;;;;5029889;28;20462;-72
2022/03/23 04:51:26;;;;;;;30.97;16.03;;;3.30;99.90;;;;;;5029792;28;20527;-72
2022/03/23 04:53:52;;;;;;;34.60;16.53;;;3.20;99.90;;;;;;5029181;28;20453;-72
2022/03/23 04:56:20;;;;;;;34.23;16.27;;;3.10;99.90;;;;;;5030108;28;20519;-72
2022/03/23 04:58:47;;;;;;;28.47;16.10;;;3.10;99.90;;;;;;5032165;28;20469;-72
2022/03/23 05:01:13;;;;;;;33.00;16.53;;;3.00;99.90;;;;;;5033777;28;21017;-72
2022/03/23 05:03:40;;;;;;;29.07;16.50;;;3.00;99.90;;;;;;5033766;28;20507;-72
2022/03/23 05:06:08;;;;;;;29.40;15.77;;;3.00;99.90;;;;;;5033432;28;20457;-72
2022/03/23 05:08:34;;;;;;;30.07;16.07;;;2.90;99.90;;;;;;5033689;28;20480;-72
2022/03/23 05:11:01;;;;;;;32.40;18.20;;;2.90;99.90;;;;;;5033277;28;20511;-72
2022/03/23 05:13:29;;;;;;;26.50;15.07;;;2.90;99.90;;;;;;5033587;28;20445;-72
2022/03/23 05:15:56;;;;;;;34.23;16.40;;;2.80;99.90;;;;;;5033595;28;20457;-72
2022/03/23 05:18:23;;;;;;;30.70;16.57;;;2.90;99.90;;;;;;5033701;28;20539;-72
2022/03/23 05:20:49;;;;;;;30.47;16.63;;;2.80;99.90;;;;;;5033183;28;20477;-72
2022/03/23 05:23:16;;;;;;;28.83;17.13;;;2.80;99.90;;;;;;5032987;28;20485;-72
2022/03/23 05:25:42;;;;;;;29.13;15.50;;;2.80;99.90;;;;;;5033615;28;20499;-72
2022/03/23 05:28:10;;;;;;;27.40;17.00;;;2.80;99.90;;;;;;5033399;28;20471;-72
2022/03/23 05:30:38;;;;;;;31.60;16.77;;;2.80;99.90;;;;;;5033117;28;20457;-73
2022/03/23 05:33:05;;;;;;;32.43;15.20;;;2.80;99.90;;;;;;5027364;28;20568;-73
2022/03/23 05:35:32;;;;;;;30.93;16.27;;;2.80;99.90;;;;;;5033416;28;20449;-73
2022/03/23 05:37:58;;;;;;;31.77;17.40;;;2.80;99.90;;;;;;5033064;28;20694;-73
2022/03/23 05:40:25;;;;;;;32.90;16.20;;;2.80;99.90;;;;;;5032997;28;20460;-73
2022/03/23 05:42:52;;;;;;;32.00;16.37;;;2.80;99.90;;;;;;5032578;28;20538;-73
2022/03/23 05:45:19;;;;;;;34.57;16.50;;;2.70;99.90;;;;;;5032784;28;20457;-72
2022/03/23 05:47:48;;;;;;;29.73;17.27;;;2.70;99.90;;;;;;5031879;28;20477;-73
2022/03/23 05:50:15;;;;;;;29.93;16.43;;;2.70;99.90;;;;;;5033046;28;20552;-73
2022/03/23 05:52:42;;;;;;;25.97;16.00;;;2.90;99.90;;;;;;5032694;28;20870;-73
2022/03/23 05:55:09;;;;;;;35.93;15.87;;;3.10;99.90;;;;;;5032073;28;20453;-73
2022/03/23 05:57:37;;;;;;;29.67;15.80;;;3.30;99.90;;;;;;5032416;28;20827;-73
2022/03/23 06:00:05;;;;;;;31.40;15.70;;;3.50;99.90;;;;;;5032649;28;20468;-73
2022/03/23 06:02:31;;;;;;;30.23;17.00;;;3.80;99.90;;;;;;5032038;28;20547;-73
2022/03/23 06:04:59;;;;;;;37.13;18.23;;;4.00;99.90;;;;;;5032709;28;20450;-73
2022/03/23 06:07:26;;;;;;;30.37;16.27;;;4.30;99.90;;;;;;5032814;28;20606;-73
2022/03/23 06:09:52;;;;;;;30.57;16.60;;;4.60;99.90;;;;;;5032015;28;20945;-73
2022/03/23 06:12:20;;;;;;;26.17;16.30;;;4.90;99.90;;;;;;5032229;28;20499;-73
2022/03/23 06:14:47;;;;;;;30.37;15.00;;;5.10;99.90;;;;;;5031280;28;20993;-73
2022/03/23 06:17:14;;;;;;;31.80;16.30;;;5.40;99.90;;;;;;5032632;28;20527;-73
2022/03/23 06:19:41;;;;;;;38.43;15.23;;;5.70;99.90;;;;;;5032336;28;20461;-73
2022/03/23 06:22:09;;;;;;;30.13;16.37;;;6.10;99.90;;;;;;5032484;28;20485;-73
2022/03/23 06:24:35;;;;;;;22.50;14.43;;;6.30;99.90;;;;;;5031670;28;20450;-73
2022/03/23 06:27:02;;;;;;;31.13;17.13;;;6.70;99.90;;;;;;5030787;28;20477;-73
2022/03/23 06:29:29;;;;;;;27.93;15.60;;;7.00;99.90;;;;;;5032499;28;20449;-73
2022/03/23 06:31:56;;;;;;;29.97;16.80;;;7.30;99.90;;;;;;5031892;28;20449;-73
2022/03/23 06:34:23;;;;;;;32.80;16.03;;;7.60;99.90;;;;;;5031959;28;20465;-73
2022/03/23 06:36:49;;;;;;;24.90;15.83;;;7.90;99.90;;;;;;5031539;28;20523;-73
2022/03/23 06:39:17;;;;;;;27.00;16.00;;;8.10;99.90;;;;;;5032057;28;20488;-73
2022/03/23 06:41:44;;;;;;;25.80;15.27;;;8.50;99.90;;;;;;5030506;28;20489;-73
2022/03/23 06:44:10;;;;;;;30.90;15.87;;;9.00;99.90;;;;;;5030807;28;20946;-74
2022/03/23 06:46:37;;;;;;;35.37;16.77;;;9.30;99.90;;;;;;5031655;28;20507;-73
2022/03/23 06:49:05;;;;;;;32.10;16.60;;;9.60;99.90;;;;;;5031705;28;20457;-74
2022/03/23 06:51:32;;;;;;;51.47;16.30;;;9.90;99.90;;;;;;5031821;28;20460;-74
2022/03/23 06:53:59;;;;;;;45.03;17.03;;;10.20;99.90;;;;;;5030911;28;20500;-74
2022/03/23 06:56:27;;;;;;;27.27;17.40;;;10.50;99.90;;;;;;5031485;28;20513;-74
2022/03/23 06:58:53;;;;;;;29.27;16.60;;;10.80;99.90;;;;;;5024061;28;20507;-73
2022/03/23 07:01:20;;;;;;;27.67;15.77;;;11.10;99.90;;;;;;5038438;28;20454;-72
2022/03/23 07:03:48;;;;;;;29.70;16.30;;;11.30;99.90;;;;;;5042060;28;20507;-72
2022/03/23 07:06:15;;;;;;;35.10;16.27;;;11.60;99.90;;;;;;5043677;28;20453;-72
2022/03/23 07:11:28;;;;;;;29.90;17.07;;;12.10;99.90;;;;;;5044372;28;20452;-72
2022/03/23 07:13:54;;;;;;;28.40;16.90;;;12.40;99.90;;;;;;5043843;28;20457;-72
2022/03/23 07:16:21;;;;;;;30.33;17.00;;;12.60;99.90;;;;;;5045984;28;20458;-72
2022/03/23 07:18:47;;;;;;;28.83;16.03;;;12.90;99.60;;;;;;5047023;28;20523;-72
2022/03/23 07:21:14;;;;;;;28.17;15.97;;;13.30;99.20;;;;;;5046173;28;20455;-72
2022/03/23 07:23:43;;;;;;;28.30;16.83;;;13.60;98.60;;;;;;5050629;28;20548;-72
2022/03/23 07:26:10;;;;;;;27.00;16.07;;;13.60;98.10;;;;;;5035550;28;20453;-72
2022/03/23 07:28:38;;;;;;;27.07;17.57;;;13.60;97.70;;;;;;5054953;28;20563;-71
2022/03/23 07:31:05;;;;;;;35.37;17.50;;;13.60;97.70;;;;;;5055391;28;20449;-72
2022/03/23 07:33:31;;;;;;;33.07;16.90;;;13.60;98.10;;;;;;5052106;28;20450;-72
2022/03/23 07:35:58;;;;;;;35.00;16.70;;;13.70;97.80;;;;;;5032284;28;20443;-72
2022/03/23 07:38:25;;;;;;;29.90;17.60;;;13.70;97.90;;;;;;5029179;28;20454;-72
2022/03/23 07:40:52;;;;;;;27.63;17.13;;;13.70;97.50;;;;;;5049129;28;20458;-71
2022/03/23 07:43:18;;;;;;;27.17;17.57;;;13.70;97.60;;;;;;5049270;28;20488;-72
2022/03/23 07:45:47;;;;;;;30.93;16.77;;;13.70;97.30;;;;;;5050641;28;20445;-72
2022/03/23 07:48:15;;;;;;;29.80;18.03;;;13.80;97.40;;;;;;5045781;28;20480;-71
2022/03/23 07:50:42;;;;;;;37.93;17.23;;;13.90;97.50;;;;;;5041943;28;20484;-72
2022/03/23 07:53:08;;;;;;;28.57;17.90;;;13.90;97.20;;;;;;5025908;28;20453;-72
2022/03/23 07:55:35;;;;;;;31.07;18.00;;;13.90;96.30;;;;;;5027328;28;20457;-71
2022/03/23 07:58:02;;;;;;;30.43;17.40;;;13.80;96.60;;;;;;5030740;28;20473;-71
2022/03/23 08:00:29;;;;;;;31.03;17.67;;;13.90;95.90;;;;;;5028593;28;20746;-72
2022/03/23 08:02:57;;;;;;;28.47;16.57;;;14.10;96.00;;;;;;5030285;28;20485;-72
2022/03/23 08:05:25;;;;;;;30.37;18.90;;;14.20;95.60;;;;;;5033204;28;20503;-72
2022/03/23 08:07:51;;;;;;;30.23;16.60;;;14.10;94.90;;;;;;5025945;28;20894;-72
2022/03/23 08:10:18;;;;;;;30.00;18.53;;;14.10;95.40;;;;;;5028573;28;21033;-72
2022/03/23 08:12:44;;;;;;;33.23;17.97;;;14.00;95.50;;;;;;5029817;28;20449;-72
2022/03/23 08:15:11;;;;;;;33.23;18.30;;;14.10;95.40;;;;;;5029644;28;20448;-72
2022/03/23 08:17:38;;;;;;;29.73;18.50;;;14.10;95.70;;;;;;5028402;28;20466;-72
2022/03/23 08:22:53;;;;;;;32.00;17.77;;;14.10;95.00;;;;;;5016750;28;20476;-72
2022/03/23 08:25:20;;;;;;;30.60;19.07;;;14.20;95.60;;;;;;5030170;28;20887;-72
2022/03/23 08:27:47;;;;;;;33.63;18.63;;;14.60;95.20;;;;;;5030763;28;20481;-72
2022/03/23 08:30:14;;;;;;;29.20;17.90;;;15.00;94.20;;;;;;5030721;28;20463;-72
2022/03/23 08:32:41;;;;;;;34.07;18.50;;;15.30;93.80;;;;;;5031174;28;20504;-72
2022/03/23 08:35:10;;;;;;;27.70;17.00;;;15.60;94.50;;;;;;5035103;28;20454;-72
2022/03/23 08:37:37;;;;;;;27.10;18.07;;;15.90;94.00;;;;;;5034556;28;21068;-73
2022/03/23 08:40:05;;;;;;;32.77;18.67;;;16.10;92.70;;;;;;5030032;28;20482;-72
2022/03/23 08:42:32;;;;;;;28.30;18.93;;;16.00;92.30;;;;;;5014801;28;20479;-72
2022/03/23 08:44:58;;;;;;;31.60;18.33;;;16.00;93.40;;;;;;5026393;28;20461;-72
2022/03/23 08:47:27;;;;;;;30.93;18.20;;;16.10;93.90;;;;;;5034101;28;20900;-72
2022/03/23 08:49:55;;;;;;;29.23;17.70;;;16.30;94.30;;;;;;5033291;28;20806;-73
2022/03/23 08:52:23;;;;;;;26.43;17.60;;;16.40;93.20;;;;;;5034247;28;20457;-73
2022/03/23 08:54:50;;;;;;;25.47;17.47;;;16.80;92.90;;;;;;5024356;28;20514;-72
2022/03/23 08:57:17;;;;;;;28.27;17.47;;;17.00;91.70;;;;;;5033602;28;20451;-72
2022/03/23 08:59:44;;;;;;;25.37;17.40;;;17.10;92.50;;;;;;5034068;28;20567;-72
2022/03/23 09:02:10;;;;;;;25.37;17.13;;;17.30;92.00;;;;;;5033944;28;20982;-73
2022/03/23 09:04:37;;;;;;;33.13;19.53;;;17.60;91.30;;;;;;5033373;28;20464;-72
2022/03/23 09:07:04;;;;;;;31.27;19.27;;;17.80;91.40;;;;;;5033813;28;20485;-73
2022/03/23 09:09:32;;;;;;;28.00;18.43;;;18.10;90.10;;;;;;5034134;28;20473;-72
2022/03/23 09:11:59;;;;;;;29.90;17.43;;;18.30;90.20;;;;;;5033858;28;20436;-73
2022/03/23 09:14:25;;;;;;;29.70;18.53;;;18.50;88.20;;;;;;5033522;28;20424;-72
2022/03/23 09:16:52;;;;;;;24.47;16.97;;;18.60;85.40;;;;;;5033270;28;20455;-72
2022/03/23 09:19:20;;;;;;;27.60;18.80;;;18.50;84.90;;;;;;5033105;28;20449;-72
2022/03/23 09:21:46;;;;;;;31.43;18.90;;;18.60;84.10;;;;;;5026122;28;20916;-72
2022/03/23 09:24:13;;;;;;;24.47;18.10;;;18.60;86.00;;;;;;5032844;28;20488;-72
2022/03/23 09:26:42;;;;;;;23.27;17.97;;;18.80;84.30;;;;;;5032477;28;20489;-72
2022/03/23 09:29:09;;;;;;;24.80;17.70;;;18.90;83.90;;;;;;5033529;28;20424;-72
2022/03/23 09:31:36;;;;;;;29.60;18.27;;;19.10;84.10;;;;;;5032932;28;20453;-72
2022/03/23 09:34:03;;;;;;;30.47;18.83;;;19.30;83.50;;;;;;5032081;28;20877;-72
2022/03/23 09:39:14;;;;;;;30.53;18.57;;;19.80;81.90;;;;;;5027694;28;20534;-72
2022/03/23 09:41:43;;;;;;;30.17;19.87;;;19.60;78.90;;;;;;5032770;28;20536;-72
2022/03/23 09:44:11;;;;;;;25.17;18.10;;;19.10;78.10;;;;;;5032260;28;20524;-72
2022/03/23 09:46:38;;;;;;;31.10;18.90;;;18.60;79.50;;;;;;5032566;28;20519;-72
2022/03/23 09:49:06;;;;;;;28.20;17.87;;;18.60;81.30;;;;;;5021150;28;20500;-72
2022/03/23 09:51:34;;;;;;;36.90;20.20;;;18.70;80.80;;;;;;5013416;28;20464;-72
2022/03/23 09:54:03;;;;;;;24.63;18.13;;;18.90;79.00;;;;;;5025983;28;20447;-72
2022/03/23 09:56:30;;;;;;;28.13;18.70;;;19.10;79.30;;;;;;5022027;28;20449;-72
2022/03/23 09:59:00;;;;;;;34.20;19.07;;;19.40;77.50;;;;;;5032861;28;20503;-72
2022/03/23 10:02:23;;;;;;;24.47;17.60;;;19.60;78.20;;;;;;5032648;28;20958;-72
2022/03/23 10:05:52;;;;;;;30.40;18.77;;;19.90;80.70;;;;;;5031811;28;21066;-72
2022/03/23 10:08:48;;;;;;;35.13;19.10;;;20.60;78.00;;;;;;5032021;28;20507;-72
2022/03/23 10:12:01;;;;;;;34.27;19.57;;;20.10;77.80;;;;;;5027196;28;20453;-72
2022/03/23 10:15:05;;;;;;;29.73;17.73;;;20.00;77.30;;;;;;5032372;28;20449;-72
2022/03/23 10:18:21;;;;;;;29.00;18.50;;;20.10;79.60;;;;;;5032020;28;20469;-72
2022/03/23 10:20:48;;;;;;;30.63;20.30;;;20.50;77.10;;;;;;5032066;28;20456;-72
2022/03/23 10:23:20;;;;;;;28.83;19.87;;;20.70;77.90;;;;;;5031287;28;20496;-72
2022/03/23 10:25:47;;;;;;;28.53;19.03;;;20.70;75.50;;;;;;5031917;28;20512;-72
2022/03/23 10:28:14;;;;;;;26.77;18.47;;;20.40;76.50;;;;;;5031883;28;20473;-72
2022/03/23 10:30:43;;;;;;;35.87;20.67;;;20.00;76.70;;;;;;5032222;28;20450;-72
2022/03/23 10:33:19;;;;;;;34.30;20.90;;;19.90;77.10;;;;;;5031443;28;20969;-71
2022/03/23 10:35:47;;;;;;;29.47;19.30;;;20.00;79.40;;;;;;5031618;28;20995;-72
2022/03/23 10:38:14;;;;;;;38.00;19.70;;;20.10;77.80;;;;;;5031572;28;20473;-72
2022/03/23 10:40:41;;;;;;;27.93;20.27;;;19.90;76.00;;;;;;5032205;28;20453;-71
2022/03/23 10:43:10;;;;;;;32.63;18.90;;;20.10;78.40;;;;;;5031866;28;20461;-72
2022/03/23 10:45:36;;;;;;;27.83;17.40;;;20.60;75.20;;;;;;5031826;28;20449;-72
2022/03/23 10:48:12;;;;;;;30.20;18.23;;;20.70;72.70;;;;;;5030794;28;20473;-71
2022/03/23 10:50:51;;;;;;;25.00;18.40;;;20.60;74.60;;;;;;5032139;28;20453;-72
2022/03/23 10:53:25;;;;;;;36.70;19.63;;;20.40;74.60;;;;;;5031851;28;20456;-72
2022/03/23 10:55:52;;;;;;;28.10;18.50;;;20.40;73.50;;;;;;5030395;28;20453;-72
2022/03/23 10:58:24;;;;;;;26.60;17.37;;;20.40;73.30;;;;;;5031234;28;20469;-72
2022/03/23 11:00:51;;;;;;;21.53;15.97;;;20.60;69.70;;;;;;5031203;28;20462;-72
2022/03/23 11:03:18;;;;;;;26.50;16.97;;;20.70;68.10;;;;;;5031435;28;20457;-72
2022/03/23 11:05:48;;;;;;;23.30;16.10;;;20.50;67.10;;;;;;5031731;28;20457;-72
2022/03/23 11:08:20;;;;;;;26.67;17.00;;;20.30;68.60;;;;;;5030881;28;20488;-72
2022/03/23 11:16:23;;;;;;;27.43;18.10;;;21.10;68.90;;;;;;5031051;28;20449;-72
2022/03/23 11:18:50;;;;;;;25.17;15.97;;;21.70;68.60;;;;;;5030166;28;20473;-72
2022/03/23 11:21:18;;;;;;;18.23;14.77;;;22.10;66.30;;;;;;5030751;28;20461;-72
2022/03/23 11:23:45;;;;;;;21.33;15.10;;;22.10;62.10;;;;;;5030136;28;20492;-72
2022/03/23 11:26:13;;;;;;;22.47;14.80;;;21.70;63.50;;;;;;5030712;28;20460;-72
2022/03/23 11:28:43;;;;;;;26.60;14.37;;;21.60;62.00;;;;;;5030685;28;20477;-72
2022/03/23 11:31:12;;;;;;;21.90;14.47;;;21.70;59.80;;;;;;5027839;28;20536;-72
2022/03/23 11:33:39;;;;;;;20.80;14.80;;;21.70;59.60;;;;;;5030661;28;20453;-72
2022/03/23 11:36:09;;;;;;;22.00;13.40;;;22.00;59.00;;;;;;5030633;28;20454;-72
2022/03/23 11:38:39;;;;;;;19.90;14.33;;;22.10;58.20;;;;;;5030643;28;20972;-71
2022/03/23 11:41:07;;;;;;;15.60;12.90;;;21.80;57.30;;;;;;5030975;28;20507;-72
2022/03/23 11:43:36;;;;;;;20.03;12.43;;;21.80;56.90;;;;;;5030080;28;20477;-72
2022/03/23 11:46:06;;;;;;;17.17;12.87;;;21.50;56.70;;;;;;5030525;28;20504;-71
2022/03/23 11:48:48;;;;;;;15.37;12.83;;;21.20;56.20;;;;;;5030530;28;20492;-71
2022/03/23 11:51:24;;;;;;;15.33;12.90;;;21.30;56.80;;;;;;5030426;28;20779;-72
2022/03/23 11:54:03;;;;;;;21.93;12.47;;;21.30;58.00;;;;;;5025679;28;20472;-72
2022/03/23 11:56:39;;;;;;;18.93;12.53;;;21.10;56.10;;;;;;5027878;28;20715;-72
2022/03/23 11:59:20;;;;;;;15.60;11.90;;;21.50;57.00;;;;;;5030284;28;20452;-72
2022/03/23 12:01:47;;;;;;;20.10;12.97;;;21.50;54.80;;;;;;5030371;28;20540;-72
2022/03/23 12:04:17;;;;;;;17.40;11.30;;;21.70;55.90;;;;;;5030270;28;20485;-72
2022/03/23 12:06:45;;;;;;;18.30;13.30;;;21.70;60.10;;;;;;5030129;28;20461;-72
2022/03/23 12:09:32;;;;;;;14.23;12.30;;;22.00;55.90;;;;;;5030299;28;21065;-72
2022/03/23 12:11:59;;;;;;;19.90;12.63;;;22.20;55.20;;;;;;5030371;28;20441;-72
2022/03/23 12:14:28;;;;;;;21.60;12.83;;;21.90;54.30;;;;;;5030041;28;20449;-72
2022/03/23 12:17:12;;;;;;;19.87;12.60;;;21.70;54.30;;;;;;5030036;28;20496;-72
2022/03/23 12:20:05;;;;;;;18.40;12.20;;;21.80;56.20;;;;;;5029727;28;20438;-71
2022/03/23 12:22:54;;;;;;;15.00;12.40;;;22.10;55.40;;;;;;5025535;28;20537;-71
2022/03/23 12:25:29;;;;;;;18.50;12.20;;;22.10;53.90;;;;;;5010707;28;20501;-71
2022/03/23 12:28:08;;;;;;;14.47;12.17;;;21.90;55.50;;;;;;5022431;28;20977;-72
2022/03/23 12:30:59;;;;;;;15.27;12.10;;;22.10;54.30;;;;;;5014352;28;20499;-72
2022/03/23 12:33:28;;;;;;;16.70;12.53;;;21.90;57.90;;;;;;5030291;28;20511;-71
2022/03/23 12:36:00;;;;;;;18.67;13.20;;;22.30;55.10;;;;;;5030709;28;20467;-72
2022/03/23 12:38:29;;;;;;;16.60;13.03;;;22.90;55.40;;;;;;5028040;28;20524;-71
2022/03/23 12:41:01;;;;;;;19.07;13.87;;;23.50;55.70;;;;;;5010790;28;20457;-72
2022/03/23 12:43:36;;;;;;;21.47;14.67;;;23.80;54.20;;;;;;5010483;28;20454;-72
2022/03/23 12:46:04;;;;;;;17.13;13.27;;;23.70;56.50;;;;;;5010492;28;20994;-71
2022/03/23 12:59:38;;;;;;;22.73;13.60;;;23.30;53.00;;;;;;5028897;28;21048;-71
2022/03/23 13:02:35;;;;;;;16.63;13.23;;;23.10;54.80;;;;;;5028472;28;20461;-71
2022/03/23 13:05:06;;;;;;;17.97;12.93;;;23.40;54.20;;;;;;4968164;28;20591;-72
2022/03/23 13:07:42;;;;;;;26.83;13.30;;;23.70;52.50;;;;;;5016935;28;20485;-72
2022/03/23 13:10:11;;;;;;;23.83;13.13;;;24.00;51.80;;;;;;5029391;28;20869;-72
2022/03/23 13:12:40;;;;;;;21.63;14.10;;;23.90;53.20;;;;;;5029975;28;20449;-72
2022/03/23 13:15:12;;;;;;;33.93;22.80;;;23.80;54.00;;;;;;5029060;28;20515;-71
2022/03/23 13:17:41;;;;;;;47.13;34.60;;;23.70;52.50;;;;;;5029601;28;20469;-72